createdAt,value
2018-06-11T00:01:22.432Z,101314.14
2018-06-11T00:03:50.386Z,101321.30
2018-06-11T00:06:18.343Z,101321.37
2018-06-11T00:08:45.921Z,101319.17
2018-06-11T00:11:13.525Z,101319.17
2018-06-11T00:13:41.193Z,101320.10
2018-06-11T00:16:09.174Z,101311.48
2018-06-11T00:18:36.748Z,101305.92
2018-06-11T00:21:04.719Z,101306.85
2018-06-11T00:23:32.309Z,101305.11
2018-06-11T00:25:59.913Z,101311.82
2018-06-11T00:28:28.269Z,101315.43
2018-06-11T00:30:55.875Z,101325.24
2018-06-11T00:33:23.487Z,101311.06
2018-06-11T00:35:51.120Z,101305.31
2018-06-11T00:38:18.966Z,101299.62
2018-06-11T00:40:46.894Z,101301.01
2018-06-11T00:43:14.762Z,101311.27
2018-06-11T00:45:43.038Z,101311.72
2018-06-11T00:48:11.082Z,101301.25
2018-06-11T00:50:39.014Z,101302.17
2018-06-11T00:53:07.145Z,101307.53
2018-06-11T00:55:46.038Z,101309.73
2018-06-11T00:58:14.219Z,101305.77
2018-06-11T01:00:41.820Z,101300.46
2018-06-11T01:03:09.925Z,101308.92
2018-06-11T01:05:37.543Z,101306.27
2018-06-11T01:08:05.191Z,101303.77
2018-06-11T01:10:33.133Z,101291.36
2018-06-11T01:13:01.406Z,101297.53
2018-06-11T01:15:29.697Z,101294.89
2018-06-11T01:17:57.351Z,101287.22
2018-06-11T01:20:25.205Z,101293.39
2018-06-11T01:22:53.331Z,101289.33
2018-06-11T01:25:20.929Z,101291.08
2018-06-11T01:27:48.884Z,101287.94
2018-06-11T01:30:17.117Z,101285.44
2018-06-11T01:32:45.066Z,101284.03
2018-06-11T01:35:13.343Z,101286.28
2018-06-11T01:37:40.990Z,101281.37
2018-06-11T01:40:09.286Z,101278.28
2018-06-11T01:42:36.876Z,101278.22
2018-06-11T01:45:04.857Z,101280.59
2018-06-11T01:47:32.744Z,101270.39
2018-06-11T01:50:00.776Z,101273.05
2018-06-11T01:52:28.444Z,101270.00
2018-06-11T01:54:56.039Z,101274.48
2018-06-11T01:57:23.629Z,101275.90
2018-06-11T01:59:51.917Z,101276.73
2018-06-11T02:02:19.833Z,101274.91
2018-06-11T02:04:47.977Z,101267.02
2018-06-11T02:07:15.601Z,101267.14
2018-06-11T02:09:43.271Z,101262.38
2018-06-11T02:12:11.132Z,101254.77
2018-06-11T02:14:38.719Z,101253.95
2018-06-11T02:17:06.383Z,101248.81
2018-06-11T02:19:33.977Z,101242.70
2018-06-11T02:22:01.910Z,101244.56
2018-06-11T02:24:29.934Z,101245.47
2018-06-11T02:26:57.536Z,101244.23
2018-06-11T02:29:25.131Z,101245.47
2018-06-11T02:31:53.458Z,101242.81
2018-06-11T02:34:21.319Z,101243.75
2018-06-11T02:36:48.912Z,101251.64
2018-06-11T02:39:16.640Z,101251.69
2018-06-11T02:41:44.553Z,101262.67
2018-06-11T02:44:12.433Z,101265.87
2018-06-11T02:46:40.300Z,101264.55
2018-06-11T02:49:08.577Z,101266.86
2018-06-11T02:51:36.176Z,101259.36
2018-06-11T02:54:04.271Z,101273.92
2018-06-11T02:56:32.225Z,101274.74
2018-06-11T02:58:59.995Z,101275.73
2018-06-11T03:01:28.175Z,101274.92
2018-06-11T03:03:56.110Z,101279.22
2018-06-11T03:06:23.940Z,101280.09
2018-06-11T03:08:51.874Z,101280.70
2018-06-11T03:11:19.761Z,101288.16
2018-06-11T03:13:47.723Z,101282.08
2018-06-11T03:16:15.397Z,101282.08
2018-06-11T03:18:43.141Z,101284.52
2018-06-11T03:21:10.728Z,101289.81
2018-06-11T03:23:38.334Z,101292.52
2018-06-11T03:26:06.094Z,101294.77
2018-06-11T03:28:33.977Z,101295.65
2018-06-11T03:31:01.567Z,101290.41
2018-06-11T03:33:29.862Z,101297.42
2018-06-11T03:35:57.779Z,101302.27
2018-06-11T03:38:25.745Z,101303.70
2018-06-11T03:40:53.638Z,101305.48
2018-06-11T03:43:21.585Z,101306.35
2018-06-11T03:45:49.304Z,101310.33
2018-06-11T03:48:17.417Z,101312.09
2018-06-11T03:50:45.587Z,101318.27
2018-06-11T03:53:13.258Z,101321.45
2018-06-11T03:55:41.448Z,101315.68
2018-06-11T03:58:09.037Z,101310.33
2018-06-11T04:00:36.918Z,101316.89
2018-06-11T04:03:05.163Z,101316.07
2018-06-11T04:05:33.125Z,101309.82
2018-06-11T04:08:01.076Z,101308.41
2018-06-11T04:10:29.528Z,101311.54
2018-06-11T04:12:57.486Z,101312.47
2018-06-11T04:15:25.581Z,101311.66
2018-06-11T04:17:53.653Z,101316.07
2018-06-11T04:20:21.934Z,101304.70
2018-06-11T04:22:49.844Z,101299.73
2018-06-11T04:25:17.465Z,101301.51
2018-06-11T04:27:45.320Z,101305.96
2018-06-11T04:30:13.444Z,101299.73
2018-06-11T04:32:41.046Z,101301.87
2018-06-11T04:35:08.933Z,101293.06
2018-06-11T04:37:36.997Z,101293.45
2018-06-11T04:40:05.177Z,101281.48
2018-06-11T04:42:32.773Z,101273.59
2018-06-11T04:45:00.642Z,101283.67
2018-06-11T04:47:28.282Z,101280.55
2018-06-11T04:49:56.091Z,101283.19
2018-06-11T04:52:23.708Z,101280.55
2018-06-11T04:54:52.271Z,101281.81
2018-06-11T04:57:20.234Z,101286.72
2018-06-11T04:59:48.114Z,101286.72
2018-06-11T05:02:16.757Z,101286.66
2018-06-11T05:04:44.953Z,101287.92
2018-06-11T05:07:13.011Z,101291.41
2018-06-11T05:09:40.610Z,101295.39
2018-06-11T05:12:08.567Z,101294.94
2018-06-11T05:14:37.155Z,101294.00
2018-06-11T05:17:04.734Z,101288.70
2018-06-11T05:19:33.462Z,101294.00
2018-06-11T05:22:01.862Z,101294.34
2018-06-11T05:24:30.309Z,101291.23
2018-06-11T05:26:57.922Z,101287.66
2018-06-11T05:29:26.474Z,101300.03
2018-06-11T05:31:54.402Z,101302.23
2018-06-11T05:34:22.248Z,101308.79
2018-06-11T05:36:50.298Z,101313.27
2018-06-11T05:39:18.123Z,101315.52
2018-06-11T05:41:45.729Z,101317.24
2018-06-11T05:44:13.794Z,101323.36
2018-06-11T05:46:41.739Z,101323.41
2018-06-11T05:49:09.604Z,101329.05
2018-06-11T05:51:37.992Z,101328.54
2018-06-11T05:54:05.912Z,101325.29
2018-06-11T05:56:33.976Z,101333.57
2018-06-11T05:59:01.821Z,101326.95
2018-06-11T06:01:29.795Z,101328.72
2018-06-11T06:03:58.055Z,101324.24
2018-06-11T06:06:26.034Z,101328.33
2018-06-11T06:08:54.250Z,101328.78
2018-06-11T06:11:21.993Z,101330.53
2018-06-11T06:13:49.854Z,101338.05
2018-06-11T06:16:17.771Z,101334.50
2018-06-11T06:18:45.994Z,101336.88
2018-06-11T06:21:13.670Z,101341.78
2018-06-11T06:23:41.727Z,101345.66
2018-06-11T06:26:10.234Z,101352.23
2018-06-11T06:28:38.103Z,101350.06
2018-06-11T06:31:05.956Z,101353.49
2018-06-11T06:33:34.150Z,101357.80
2018-06-11T06:36:02.256Z,101355.55
2018-06-11T06:38:30.188Z,101354.11
2018-06-11T06:40:59.203Z,101361.06
2018-06-11T06:43:27.309Z,101361.67
2018-06-11T06:45:57.311Z,101358.58
2018-06-11T06:48:25.158Z,101349.24
2018-06-11T06:50:53.316Z,101353.55
2018-06-11T06:53:20.997Z,101349.91
2018-06-11T06:55:48.889Z,101346.00
2018-06-11T06:58:16.868Z,101346.78
2018-06-11T07:00:44.503Z,101345.00
2018-06-11T07:03:12.408Z,101347.11
2018-06-11T07:05:40.130Z,101350.63
2018-06-11T07:08:07.879Z,101351.84
2018-06-11T07:10:35.700Z,101346.99
2018-06-11T07:13:03.320Z,101352.17
2018-06-11T07:15:30.945Z,101358.26
2018-06-11T07:17:58.573Z,101360.40
2018-06-11T07:20:26.156Z,101362.11
2018-06-11T07:22:53.818Z,101358.95
2018-06-11T07:25:21.689Z,101358.84
2018-06-11T07:27:49.522Z,101350.83
2018-06-11T07:30:17.270Z,101356.13
2018-06-11T07:32:44.892Z,101357.90
2018-06-11T07:35:12.505Z,101364.80
2018-06-11T07:37:41.090Z,101355.01
2018-06-11T07:40:08.960Z,101356.84
2018-06-11T07:42:37.273Z,101367.12
2018-06-11T07:45:04.901Z,101366.28
2018-06-11T07:47:32.644Z,101371.97
2018-06-11T07:50:00.328Z,101377.15
2018-06-11T07:52:28.280Z,101371.84
2018-06-11T07:54:56.203Z,101369.26
2018-06-11T07:57:23.862Z,101377.00
2018-06-11T07:59:51.469Z,101371.25
2018-06-11T08:02:19.766Z,101371.45
2018-06-11T08:04:47.677Z,101367.75
2018-06-11T08:07:15.944Z,101369.86
2018-06-11T08:09:43.596Z,101365.94
2018-06-11T08:12:11.801Z,101369.53
2018-06-11T08:14:39.442Z,101372.12
2018-06-11T08:17:07.283Z,101372.89
2018-06-11T08:19:34.954Z,101361.78
2018-06-11T08:22:02.584Z,101360.84
2018-06-11T08:24:30.822Z,101364.43
2018-06-11T08:26:58.440Z,101364.27
2018-06-11T08:29:26.613Z,101363.03
2018-06-11T08:31:55.440Z,101366.41
2018-06-11T08:34:23.388Z,101373.45
2018-06-11T08:36:51.312Z,101368.45
2018-06-11T08:39:18.917Z,101374.25
2018-06-11T08:41:46.563Z,101364.55
2018-06-11T08:44:14.452Z,101360.17
2018-06-11T08:46:42.070Z,101363.77
2018-06-11T08:49:09.688Z,101370.38
2018-06-11T08:51:37.616Z,101370.91
2018-06-11T08:54:05.376Z,101362.70
2018-06-11T08:56:33.966Z,101368.78
2018-06-11T08:59:01.958Z,101367.91
2018-06-11T09:01:29.805Z,101374.09
2018-06-11T09:03:57.408Z,101363.88
2018-06-11T09:06:25.040Z,101362.03
2018-06-11T09:08:52.822Z,101370.38
2018-06-11T09:11:20.403Z,101370.38
2018-06-11T09:13:48.361Z,101371.83
2018-06-11T09:16:16.920Z,101370.23
2018-06-11T09:18:44.847Z,101375.61
2018-06-11T09:21:12.822Z,101369.07
2018-06-11T09:23:40.856Z,101378.68
2018-06-11T09:26:08.474Z,101374.22
2018-06-11T09:28:36.088Z,101376.87
2018-06-11T09:31:04.077Z,101383.11
2018-06-11T09:33:31.708Z,101381.05
2018-06-11T09:35:59.298Z,101372.77
2018-06-11T09:38:28.352Z,101381.25
2018-06-11T09:40:56.241Z,101374.10
2018-06-11T09:43:24.366Z,101374.23
2018-06-11T09:45:52.432Z,101386.56
2018-06-11T09:48:20.041Z,101389.44
2018-06-11T09:50:47.893Z,101378.34
2018-06-11T09:53:15.773Z,101381.94
2018-06-11T09:55:43.387Z,101387.85
2018-06-11T09:58:12.040Z,101388.89
2018-06-11T10:00:39.648Z,101385.56
2018-06-11T10:03:07.534Z,101387.50
2018-06-11T10:05:35.489Z,101386.83
2018-06-11T10:08:03.415Z,101385.89
2018-06-11T10:10:31.395Z,101384.98
2018-06-11T10:12:59.794Z,101386.89
2018-06-11T10:15:27.722Z,101393.84
2018-06-11T10:17:55.318Z,101397.97
2018-06-11T10:20:23.614Z,101397.57
2018-06-11T10:22:51.187Z,101400.81
2018-06-11T10:25:18.934Z,101396.98
2018-06-11T10:27:47.340Z,101407.12
2018-06-11T10:30:14.958Z,101402.09
2018-06-11T10:32:43.110Z,101400.90
2018-06-11T10:35:11.001Z,101397.30
2018-06-11T10:37:38.604Z,101404.20
2018-06-11T10:40:06.239Z,101401.70
2018-06-11T10:42:34.091Z,101398.77
2018-06-11T10:45:01.701Z,101396.11
2018-06-11T10:47:29.375Z,101407.02
2018-06-11T10:49:57.334Z,101412.77
2018-06-11T10:52:24.960Z,101419.28
2018-06-11T10:54:53.209Z,101421.00
2018-06-11T10:57:21.114Z,101419.48
2018-06-11T10:59:48.950Z,101427.50
2018-06-11T11:02:16.568Z,101421.66
2018-06-11T11:04:44.175Z,101426.50
2018-06-11T11:07:12.330Z,101421.46
2018-06-11T11:09:40.216Z,101422.98
2018-06-11T11:12:08.417Z,101419.72
2018-06-11T11:14:36.558Z,101425.34
2018-06-11T11:17:05.413Z,101421.62
2018-06-11T11:19:33.263Z,101416.94
2018-06-11T11:22:01.359Z,101426.48
2018-06-11T11:24:29.243Z,101426.55
2018-06-11T11:26:57.556Z,101422.56
2018-06-11T11:29:25.371Z,101422.38
2018-06-11T11:31:53.552Z,101424.05
2018-06-11T11:34:21.207Z,101412.37
2018-06-11T11:36:48.818Z,101410.65
2018-06-11T11:39:16.744Z,101420.56
2018-06-11T11:41:45.097Z,101413.53
2018-06-11T11:44:12.721Z,101410.07
2018-06-11T11:46:40.928Z,101408.12
2018-06-11T11:49:08.779Z,101410.27
2018-06-11T11:51:36.361Z,101399.97
2018-06-11T11:54:04.436Z,101404.82
2018-06-11T11:56:32.451Z,101404.89
2018-06-11T11:59:01.542Z,101407.05
2018-06-11T12:01:29.514Z,101406.67
2018-06-11T12:03:57.333Z,101404.34
2018-06-11T12:06:25.097Z,101402.26
2018-06-11T12:08:53.306Z,101393.22
2018-06-11T12:11:21.461Z,101400.41
2018-06-11T12:13:49.123Z,101390.31
2018-06-11T12:16:17.067Z,101390.11
2018-06-11T12:18:44.745Z,101377.47
2018-06-11T12:21:12.634Z,101383.79
2018-06-11T12:23:40.856Z,101385.66
2018-06-11T12:26:08.498Z,101382.06
2018-06-11T12:28:36.444Z,101379.12
2018-06-11T12:31:04.069Z,101380.97
2018-06-11T12:33:32.041Z,101381.25
2018-06-11T12:36:00.278Z,101387.84
2018-06-11T12:38:28.218Z,101381.66
2018-06-11T12:40:56.052Z,101383.72
2018-06-11T12:43:23.944Z,101376.53
2018-06-11T12:45:51.936Z,101375.09
2018-06-11T12:48:19.552Z,101368.78
2018-06-11T12:50:47.679Z,101373.08
2018-06-11T12:53:15.317Z,101381.05
2018-06-11T12:55:43.662Z,101372.45
2018-06-11T12:58:11.338Z,101378.83
2018-06-11T13:00:39.741Z,101369.59
2018-06-11T13:03:07.434Z,101370.12
2018-06-11T13:05:35.273Z,101367.39
2018-06-11T13:08:02.879Z,101369.20
2018-06-11T13:10:30.772Z,101364.73
2018-06-11T13:12:58.380Z,101353.91
2018-06-11T13:15:26.074Z,101346.18
2018-06-11T13:17:54.258Z,101339.99
2018-06-11T13:20:21.857Z,101341.70
2018-06-11T13:22:49.489Z,101338.80
2018-06-11T13:25:17.100Z,101337.78
2018-06-11T13:27:45.101Z,101332.27
2018-06-11T13:30:12.997Z,101322.72
2018-06-11T13:32:40.590Z,101328.98
2018-06-11T13:35:08.500Z,101326.81
2018-06-11T13:37:36.337Z,101325.31
2018-06-11T13:40:04.216Z,101330.70
2018-06-11T13:42:31.889Z,101334.67
2018-06-11T13:44:59.895Z,101326.91
2018-06-11T13:47:27.854Z,101324.26
2018-06-11T13:49:55.811Z,101316.18
2018-06-11T13:52:24.093Z,101323.48
2018-06-11T13:54:51.938Z,101316.28
2018-06-11T13:57:19.799Z,101320.09
2018-06-11T13:59:48.354Z,101315.66
2018-06-11T14:02:16.301Z,101313.95
2018-06-11T14:04:44.145Z,101312.94
2018-06-11T14:07:13.009Z,101308.11
2018-06-11T14:09:42.253Z,101301.72
2018-06-11T14:12:11.019Z,101293.43
2018-06-11T14:14:39.093Z,101297.59
2018-06-11T14:17:06.932Z,101295.63
2018-06-11T14:19:34.885Z,101293.91
2018-06-11T14:22:03.848Z,101296.73
2018-06-11T14:24:31.836Z,101292.66
2018-06-11T14:26:59.499Z,101290.87
2018-06-11T14:29:27.421Z,101291.34
2018-06-11T14:31:55.670Z,101282.80
2018-06-11T14:34:23.632Z,101279.09
2018-06-11T14:36:51.551Z,101266.10
2018-06-11T14:39:19.667Z,101273.06
2018-06-11T14:41:47.297Z,101269.52
2018-06-11T14:44:15.165Z,101260.55
2018-06-11T14:46:42.832Z,101247.88
2018-06-11T14:49:10.478Z,101245.73
2018-06-11T14:51:38.711Z,101252.16
2018-06-11T14:54:06.354Z,101254.73
2018-06-11T14:56:34.445Z,101251.76
2018-06-11T14:59:02.327Z,101249.17
2018-06-11T15:01:30.264Z,101248.55
2018-06-11T15:03:58.241Z,101247.33
2018-06-11T15:06:25.860Z,101247.31
2018-06-11T15:08:54.084Z,101252.88
2018-06-11T15:11:21.737Z,101258.66
2018-06-11T15:13:49.609Z,101248.31
2018-06-11T15:16:18.114Z,101247.79
2018-06-11T15:18:46.019Z,101240.15
2018-06-11T15:21:13.635Z,101245.94
2018-06-11T15:23:41.584Z,101247.83
2018-06-11T15:26:09.514Z,101248.09
2018-06-11T15:28:37.179Z,101253.95
2018-06-11T15:31:05.276Z,101249.35
2018-06-11T15:33:33.208Z,101253.00
2018-06-11T15:36:01.142Z,101254.18
2018-06-11T15:38:28.758Z,101246.31
2018-06-11T15:40:57.257Z,101241.71
2018-06-11T15:43:24.918Z,101232.17
2018-06-11T15:45:52.641Z,101237.34
2018-06-11T15:48:20.878Z,101245.05
2018-06-11T15:50:49.047Z,101254.91
2018-06-11T15:53:16.667Z,101250.50
2018-06-11T15:55:44.611Z,101252.31
2018-06-11T15:58:12.533Z,101249.96
2018-06-11T16:00:40.483Z,101246.08
2018-06-11T16:03:08.125Z,101252.19
2018-06-11T16:05:35.729Z,101250.94
2018-06-11T16:08:03.561Z,101260.85
2018-06-11T16:10:31.411Z,101259.38
2018-06-11T16:12:59.010Z,101257.20
2018-06-11T16:15:26.873Z,101252.27
2018-06-11T16:17:54.509Z,101254.22
2018-06-11T16:20:22.117Z,101248.41
2018-06-11T16:22:49.785Z,101250.30
2018-06-11T16:25:17.708Z,101253.00
2018-06-11T16:27:45.412Z,101253.34
2018-06-11T16:30:13.265Z,101249.24
2018-06-11T16:32:40.886Z,101242.61
2018-06-11T16:35:09.065Z,101234.39
2018-06-11T16:37:36.685Z,101239.34
2018-06-11T16:40:04.470Z,101241.83
2018-06-11T16:42:33.149Z,101235.22
2018-06-11T16:45:01.042Z,101220.54
2018-06-11T16:47:29.151Z,101225.89
2018-06-11T16:49:57.397Z,101221.78
2018-06-11T16:52:25.237Z,101223.02
2018-06-11T16:54:52.849Z,101223.19
2018-06-11T16:57:21.482Z,101228.55
2018-06-11T16:59:49.421Z,101228.56
2018-06-11T17:02:17.040Z,101228.01
2018-06-11T17:04:45.244Z,101232.23
2018-06-11T17:07:13.489Z,101236.92
2018-06-11T17:09:41.369Z,101228.58
2018-06-11T17:12:08.993Z,101230.28
2018-06-11T17:14:36.971Z,101224.98
2018-06-11T17:17:05.266Z,101228.09
2018-06-11T17:19:32.880Z,101228.72
2018-06-11T17:22:00.752Z,101229.66
2018-06-11T17:24:28.746Z,101224.77
2018-06-11T17:26:56.365Z,101232.26
2018-06-11T17:29:24.269Z,101241.82
2018-06-11T17:31:51.966Z,101248.17
2018-06-11T17:34:19.878Z,101251.06
2018-06-11T17:36:47.561Z,101249.66
2018-06-11T17:39:15.781Z,101243.75
2018-06-11T17:41:43.403Z,101236.38
2018-06-11T17:44:11.553Z,101237.61
2018-06-11T17:46:39.484Z,101225.23
2018-06-11T17:49:07.320Z,101232.55
2018-06-11T17:51:35.531Z,101225.77
2018-06-11T17:54:03.466Z,101232.75
2018-06-11T17:56:31.616Z,101225.91
2018-06-11T17:58:59.382Z,101218.08
2018-06-11T18:01:26.986Z,101222.23
2018-06-11T18:03:54.572Z,101218.39
2018-06-11T18:06:22.547Z,101209.57
2018-06-11T18:08:50.813Z,101210.61
2018-06-11T18:11:19.549Z,101207.94
2018-06-11T18:13:47.185Z,101209.41
2018-06-11T18:16:15.319Z,101207.57
2018-06-11T18:18:43.065Z,101211.21
2018-06-11T18:21:10.697Z,101212.99
2018-06-11T18:23:38.646Z,101215.19
2018-06-11T18:26:06.432Z,101211.97
2018-06-11T18:28:34.081Z,101212.31
2018-06-11T18:31:01.683Z,101219.25
2018-06-11T18:33:29.334Z,101214.32
2018-06-11T18:35:56.918Z,101207.86
2018-06-11T18:38:24.774Z,101213.05
2018-06-11T18:40:52.809Z,101214.67
2018-06-11T18:43:20.707Z,101218.00
2018-06-11T18:45:48.334Z,101212.06
2018-06-11T18:48:16.117Z,101209.67
2018-06-11T18:50:43.676Z,101202.39
2018-06-11T18:53:11.284Z,101194.05
2018-06-11T18:55:39.253Z,101188.88
2018-06-11T18:58:06.918Z,101188.28
2018-06-11T19:00:34.605Z,101179.68
2018-06-11T19:03:02.652Z,101171.19
2018-06-11T19:05:30.905Z,101188.32
2018-06-11T19:07:59.234Z,101185.73
2018-06-11T19:10:26.886Z,101184.89
2018-06-11T19:12:54.507Z,101182.18
2018-06-11T19:15:22.511Z,101179.17
2018-06-11T19:17:50.133Z,101176.33
2018-06-11T19:20:17.767Z,101177.75
2018-06-11T19:22:45.909Z,101176.02
2018-06-11T19:25:13.595Z,101181.78
2018-06-11T19:27:41.315Z,101176.19
2018-06-11T19:30:08.958Z,101178.27
2018-06-11T19:32:36.581Z,101181.22
2018-06-11T19:35:04.581Z,101179.80
2018-06-11T19:37:32.168Z,101178.08
2018-06-11T19:40:00.077Z,101191.66
2018-06-11T19:42:28.219Z,101186.06
2018-06-11T19:44:57.205Z,101188.17
2018-06-11T19:47:24.898Z,101190.17
2018-06-11T19:49:52.555Z,101200.34
2018-06-11T19:52:21.757Z,101200.27
2018-06-11T19:54:49.447Z,101194.97
2018-06-11T19:57:17.495Z,101194.04
2018-06-11T19:59:45.382Z,101187.20
2018-06-11T20:02:13.290Z,101186.73
2018-06-11T20:04:40.913Z,101182.40
2018-06-11T20:07:08.853Z,101182.16
2018-06-11T20:09:36.877Z,101195.09
2018-06-11T20:12:04.636Z,101203.30
2018-06-11T20:14:32.281Z,101209.75
2018-06-11T20:16:59.913Z,101202.95
2018-06-11T20:19:27.668Z,101209.86
2018-06-11T20:21:55.995Z,101200.06
2018-06-11T20:24:23.934Z,101202.56
2018-06-11T20:26:52.128Z,101207.35
2018-06-11T20:29:26.766Z,101208.48
2018-06-11T20:31:54.414Z,101209.70
2018-06-11T20:34:22.084Z,101212.30
2018-06-11T20:36:50.261Z,101206.48
2018-06-11T20:39:18.227Z,101216.55
2018-06-11T20:41:46.196Z,101213.42
2018-06-11T20:44:13.785Z,101207.16
2018-06-11T20:46:41.418Z,101211.95
2018-06-11T20:49:09.152Z,101216.70
2018-06-11T20:51:36.997Z,101221.54
2018-06-11T20:54:05.316Z,101229.87
2018-06-11T20:56:32.950Z,101225.06
2018-06-11T20:59:00.569Z,101225.45
2018-06-11T21:01:28.453Z,101223.73
2018-06-11T21:03:56.277Z,101230.34
2018-06-11T21:06:23.902Z,101230.74
2018-06-11T21:08:51.533Z,101239.12
2018-06-11T21:11:19.492Z,101234.31
2018-06-11T21:13:47.077Z,101230.34
2018-06-11T21:16:14.726Z,101230.34
2018-06-11T21:18:42.319Z,101225.45
2018-06-11T21:21:09.914Z,101227.95
2018-06-11T21:23:38.084Z,101224.42
2018-06-11T21:26:05.709Z,101229.23
2018-06-11T21:28:33.881Z,101232.75
2018-06-11T21:31:01.517Z,101229.23
2018-06-11T21:33:29.588Z,101220.03
2018-06-11T21:35:57.830Z,101216.98
2018-06-11T21:38:25.725Z,101215.27
2018-06-11T21:40:53.341Z,101213.51
2018-06-11T21:43:21.314Z,101209.98
2018-06-11T21:45:50.213Z,101204.25
2018-06-11T21:48:19.131Z,101209.06
2018-06-11T21:50:47.198Z,101216.98
2018-06-11T21:53:15.456Z,101199.02
2018-06-11T21:55:43.161Z,101197.30
2018-06-11T21:58:11.003Z,101195.50
2018-06-11T22:00:38.837Z,101190.69
2018-06-11T22:03:06.484Z,101187.62
2018-06-11T22:05:35.403Z,101177.92
2018-06-11T22:08:03.372Z,101168.73
2018-06-11T22:10:31.840Z,101169.60
2018-06-11T22:12:59.552Z,101168.28
2018-06-11T22:15:27.228Z,101160.80
2018-06-11T22:17:54.963Z,101155.56
2018-06-11T22:20:22.864Z,101163.49
2018-06-11T22:22:50.789Z,101166.67
2018-06-11T22:25:19.035Z,101172.94
2018-06-11T22:27:47.374Z,101165.90
2018-06-11T22:30:15.081Z,101161.09
2018-06-11T22:32:42.725Z,101162.86
2018-06-11T22:35:11.070Z,101153.67
2018-06-11T22:37:38.727Z,101161.20
2018-06-11T22:40:06.402Z,101161.31
2018-06-11T22:42:34.672Z,101161.39
2018-06-11T22:45:02.328Z,101161.45
2018-06-11T22:47:29.977Z,101165.86
2018-06-11T22:49:57.916Z,101163.75
2018-06-11T22:52:25.558Z,101161.55
2018-06-11T22:54:53.572Z,101158.96
2018-06-11T22:57:21.887Z,101179.70
2018-06-11T22:59:49.811Z,101166.55
2018-06-11T23:02:17.468Z,101169.24
2018-06-11T23:04:45.489Z,101165.33
2018-06-11T23:07:13.171Z,101171.49
2018-06-11T23:09:41.068Z,101163.56
2018-06-11T23:12:09.438Z,101161.45
2018-06-11T23:14:37.114Z,101157.48
2018-06-11T23:17:04.762Z,101153.05
2018-06-11T23:19:32.448Z,101157.06
2018-06-11T23:22:00.107Z,101157.55
2018-06-11T23:24:27.857Z,101161.11
2018-06-11T23:26:56.126Z,101154.51
2018-06-11T23:29:24.046Z,101147.90
2018-06-11T23:31:51.736Z,101148.40
2018-06-11T23:34:19.772Z,101145.36
2018-06-11T23:36:47.699Z,101144.48
2018-06-11T23:39:15.659Z,101145.41
2018-06-11T23:41:43.673Z,101145.41
2018-06-11T23:44:11.395Z,101145.02
2018-06-11T23:46:39.076Z,101143.75
2018-06-11T23:49:06.966Z,101141.55
2018-06-11T23:51:35.283Z,101138.13
2018-06-11T23:54:02.936Z,101142.09
2018-06-11T23:56:30.687Z,101133.34
2018-06-11T23:58:58.607Z,101133.34
